Time;durP1;ratioP1;P1;durP2;ratioP2;P2;SDS_P1;SDS_P2;PMS_P1;PMS_P2;Temp;Humidity;BMP_temperature;BMP_pressure;BME280_temperature;BME280_humidity;BME280_pressure;Samples;Min_cycle;Max_cycle;Signal;HPM_P1;HPM_P2
2021/09/21 00:00:22;;;;;;;16.15;7.65;;;;;;;9.70;100.00;97233.38;4984206;28;20042;-63
2021/09/21 00:03:08;;;;;;;14.40;7.65;;;;;;;9.65;100.00;97230.88;4987557;28;20072;-63
2021/09/21 00:05:53;;;;;;;15.77;7.82;;;;;;;9.67;100.00;97242.28;4998408;28;20041;-63
2021/09/21 00:08:39;;;;;;;14.27;8.13;;;;;;;9.87;100.00;97241.31;4986665;28;20144;-63
2021/09/21 00:11:24;;;;;;;13.45;7.00;;;;;;;9.77;100.00;97244.53;4974848;28;20112;-63
2021/09/21 00:14:10;;;;;;;14.60;7.82;;;;;;;9.85;100.00;97237.31;4990431;28;20056;-63
2021/09/21 00:16:56;;;;;;;15.10;8.02;;;;;;;9.69;100.00;97242.75;4996328;28;20600;-63
2021/09/21 00:19:42;;;;;;;16.20;7.00;;;;;;;9.51;100.00;97253.19;4993421;28;20053;-63
2021/09/21 00:22:27;;;;;;;12.65;7.57;;;;;;;9.38;100.00;97258.66;4991069;28;20038;-64
2021/09/21 00:25:15;;;;;;;14.55;7.25;;;;;;;9.31;100.00;97255.72;4996682;28;20128;-63
2021/09/21 00:28:02;;;;;;;16.35;7.85;;;;;;;9.35;100.00;97258.56;5006845;28;20046;-63
2021/09/21 00:30:50;;;;;;;16.05;7.75;;;;;;;9.46;100.00;97262.41;4997944;28;20069;-62
2021/09/21 00:34:10;;;;;;;13.45;7.78;;;;;;;9.58;100.00;97269.78;4993162;28;20465;-64
2021/09/21 00:36:48;;;;;;;16.08;7.88;;;;;;;9.61;100.00;97260.09;4996982;28;20050;-63
2021/09/21 00:39:33;;;;;;;14.30;7.95;;;;;;;9.53;100.00;97259.09;4992789;28;20045;-63
2021/09/21 00:42:26;;;;;;;14.38;8.15;;;;;;;9.05;100.00;97264.28;4990156;28;20061;-63
2021/09/21 00:45:20;;;;;;;14.40;8.15;;;;;;;8.95;100.00;97272.94;4992936;28;20045;-61
2021/09/21 00:48:06;;;;;;;17.95;9.10;;;;;;;9.06;100.00;97271.34;4991014;28;20096;-63
2021/09/21 00:50:52;;;;;;;14.80;8.35;;;;;;;9.15;100.00;97269.28;4983696;28;20577;-64
2021/09/21 00:53:37;;;;;;;15.40;8.73;;;;;;;9.17;100.00;97263.47;4992301;28;20422;-63
2021/09/21 00:56:23;;;;;;;18.63;9.57;;;;;;;8.91;100.00;97272.84;5001876;28;20049;-64
2021/09/21 00:59:09;;;;;;;17.13;8.50;;;;;;;8.91;100.00;97272.03;4998296;28;20640;-63
2021/09/21 01:01:54;;;;;;;17.35;9.32;;;;;;;8.98;100.00;97266.78;4996371;28;20077;-63
2021/09/21 01:04:40;;;;;;;15.73;8.50;;;;;;;8.97;100.00;97274.19;4989155;28;20049;-63
2021/09/21 01:07:26;;;;;;;14.55;7.82;;;;;;;8.78;100.00;97266.56;4989665;28;20038;-64
2021/09/21 01:10:16;;;;;;;15.90;8.75;;;;;;;8.63;100.00;97263.72;5012190;23;20153;-65
2021/09/21 01:13:02;;;;;;;17.17;8.75;;;;;;;8.50;100.00;97271.06;5000501;28;20042;-62
2021/09/21 01:15:49;;;;;;;16.33;9.02;;;;;;;8.33;100.00;97272.03;4978386;28;20034;-62
2021/09/21 01:18:35;;;;;;;18.52;10.07;;;;;;;8.15;100.00;97274.94;4997170;28;20188;-63
2021/09/21 01:21:23;;;;;;;18.58;9.48;;;;;;;8.32;100.00;97278.63;4985930;28;20651;-65
2021/09/21 01:24:11;;;;;;;21.17;9.73;;;;;;;8.43;100.00;97279.84;4991081;28;20081;-63
2021/09/21 01:26:57;;;;;;;20.63;10.05;;;;;;;8.66;100.00;97293.06;4995682;28;20049;-63
2021/09/21 01:29:43;;;;;;;16.90;9.40;;;;;;;8.67;100.00;97290.00;4995454;28;20060;-63
2021/09/21 01:32:28;;;;;;;16.75;9.50;;;;;;;8.49;100.00;97281.19;4990509;28;20100;-63
2021/09/21 01:35:15;;;;;;;15.27;9.25;;;;;;;8.24;100.00;97280.31;4987205;28;20042;-64
2021/09/21 01:38:01;;;;;;;18.52;9.27;;;;;;;8.28;100.00;97281.22;4991933;28;20038;-63
2021/09/21 01:40:47;;;;;;;17.77;8.93;;;;;;;8.29;100.00;97287.50;4994904;28;20049;-62
2021/09/21 01:43:32;;;;;;;21.20;10.20;;;;;;;8.24;100.00;97293.97;4994487;28;20119;-62
2021/09/21 01:46:21;;;;;;;21.67;10.10;;;;;;;8.33;100.00;97291.16;4969296;28;20042;-64
2021/09/21 01:49:06;;;;;;;18.15;10.05;;;;;;;8.37;100.00;97292.88;4987414;28;20126;-63
2021/09/21 01:55:20;;;;;;;18.08;9.38;;;;;;;8.32;100.00;97292.28;4976467;28;20763;-63
2021/09/21 01:59:06;;;;;;;20.15;10.30;;;;;;;8.22;100.00;97299.75;4982361;28;20050;-63
2021/09/21 02:01:23;;;;;;;20.00;8.85;;;;;;;8.14;100.00;97311.56;4962964;28;20462;-64
2021/09/21 02:04:09;;;;;;;17.42;9.48;;;;;;;7.79;100.00;97306.41;4994504;28;20064;-63
2021/09/21 02:06:56;;;;;;;18.65;9.18;;;;;;;7.60;100.00;97298.69;5001685;28;20431;-63
2021/09/21 02:09:41;;;;;;;18.13;9.02;;;;;;;7.57;100.00;97298.56;4992458;28;20147;-61
2021/09/21 02:12:28;;;;;;;22.38;10.25;;;;;;;7.71;100.00;97307.28;4984906;28;20061;-63
2021/09/21 02:15:14;;;;;;;21.05;10.48;;;;;;;7.80;100.00;97313.47;4969830;28;20035;-62
2021/09/21 02:18:00;;;;;;;22.67;10.38;;;;;;;7.89;100.00;97307.16;4991125;28;20045;-64
2021/09/21 02:20:46;;;;;;;23.83;9.68;;;;;;;7.88;100.00;97305.53;4992081;28;20670;-63
2021/09/21 02:23:31;;;;;;;20.70;9.88;;;;;;;7.92;100.00;97317.38;4976821;28;20058;-64
2021/09/21 02:26:17;;;;;;;17.25;8.70;;;;;;;7.92;100.00;97314.63;4990069;28;20076;-63
2021/09/21 02:29:03;;;;;;;16.60;9.45;;;;;;;7.87;100.00;97315.66;4989211;28;20041;-61
2021/09/21 02:31:49;;;;;;;15.55;8.68;;;;;;;7.87;100.00;97320.28;4992290;28;20081;-63
2021/09/21 02:34:35;;;;;;;21.13;9.27;;;;;;;7.73;100.00;97320.59;4983472;28;20146;-63
2021/09/21 02:37:20;;;;;;;25.02;9.35;;;;;;;7.68;100.00;97321.56;4988295;28;20042;-63
2021/09/21 02:40:08;;;;;;;18.13;8.90;;;;;;;7.66;100.00;97318.38;4979914;28;20058;-63
2021/09/21 02:42:53;;;;;;;18.08;8.88;;;;;;;7.73;100.00;97324.09;4995598;28;20076;-64
2021/09/21 02:45:39;;;;;;;19.77;8.38;;;;;;;7.78;100.00;97320.38;4994046;28;20534;-64
2021/09/21 02:48:25;;;;;;;18.40;9.23;;;;;;;7.79;100.00;97321.97;4987570;28;20069;-64
2021/09/21 02:51:10;;;;;;;20.40;10.07;;;;;;;7.80;100.00;97331.75;4982755;28;20486;-62
2021/09/21 02:53:56;;;;;;;20.60;10.02;;;;;;;7.91;100.00;97329.44;4996483;28;20047;-63
2021/09/21 02:56:42;;;;;;;23.65;10.38;;;;;;;7.95;100.00;97333.06;4996076;28;20576;-64
2021/09/21 02:59:27;;;;;;;21.63;10.73;;;;;;;7.95;100.00;97335.81;4992901;28;20060;-64
2021/09/21 03:02:13;;;;;;;16.75;8.35;;;;;;;7.90;100.00;97334.06;4973388;28;20065;-64
2021/09/21 03:05:07;;;;;;;16.00;8.43;;;;;;;7.83;100.00;97336.53;4990908;28;20072;-62
2021/09/21 03:08:04;;;;;;;21.92;9.60;;;;;;;7.83;100.00;97344.72;4995907;28;20048;-63
2021/09/21 03:17:07;;;;;;;16.13;8.73;;;;;;;8.30;100.00;97339.03;4997307;28;20053;-64
2021/09/21 03:19:48;;;;;;;19.98;8.95;;;;;;;8.74;100.00;97344.06;4996280;28;20042;-64
2021/09/21 03:22:34;;;;;;;15.23;9.00;;;;;;;8.84;100.00;97348.28;5011252;28;20038;-63
2021/09/21 03:25:20;;;;;;;15.77;7.82;;;;;;;8.96;100.00;97356.50;4987681;28;20525;-63
2021/09/21 03:28:06;;;;;;;17.80;8.88;;;;;;;9.05;100.00;97361.84;4986193;28;20048;-64
2021/09/21 03:30:52;;;;;;;20.42;9.38;;;;;;;9.12;100.00;97351.94;4996185;28;20050;-65
2021/09/21 03:33:37;;;;;;;16.35;9.07;;;;;;;8.95;100.00;97347.50;4995794;28;20056;-64
2021/09/21 03:36:23;;;;;;;21.27;9.95;;;;;;;8.89;100.00;97340.66;4995145;28;20951;-63
2021/09/21 03:39:08;;;;;;;18.75;9.70;;;;;;;8.91;100.00;97340.31;4992460;28;20050;-65
2021/09/21 03:41:54;;;;;;;17.92;9.63;;;;;;;8.90;100.00;97342.25;4985562;28;20045;-63
2021/09/21 03:44:40;;;;;;;16.17;8.18;;;;;;;8.60;100.00;97338.91;4989610;28;20518;-63
2021/09/21 03:47:26;;;;;;;17.33;8.57;;;;;;;8.36;100.00;97345.06;4989065;28;20046;-63
2021/09/21 03:50:11;;;;;;;17.67;8.93;;;;;;;8.13;100.00;97334.50;4982996;28;20184;-63
2021/09/21 03:52:57;;;;;;;24.02;10.45;;;;;;;8.02;100.00;97341.53;4994677;28;20092;-63
2021/09/21 03:55:43;;;;;;;21.35;10.73;;;;;;;7.83;100.00;97334.63;4995407;28;20034;-63
2021/09/21 03:58:28;;;;;;;29.63;15.00;;;;;;;7.76;100.00;97336.25;4991720;28;20952;-62
2021/09/21 04:01:14;;;;;;;30.55;12.93;;;;;;;7.89;100.00;97337.16;4969995;28;20042;-61
2021/09/21 04:04:01;;;;;;;32.42;13.32;;;;;;;7.95;100.00;97347.50;4994673;28;20049;-63
2021/09/21 04:06:47;;;;;;;37.75;15.18;;;;;;;7.98;100.00;97349.56;4996035;28;20121;-63
2021/09/21 04:09:33;;;;;;;37.00;15.43;;;;;;;8.01;100.00;97356.28;4991342;28;20052;-62
2021/09/21 04:12:19;;;;;;;36.03;15.30;;;;;;;8.04;100.00;97361.06;4984090;28;20048;-64
2021/09/21 04:15:05;;;;;;;33.88;14.30;;;;;;;7.99;100.00;97351.16;4991186;28;20129;-64
2021/09/21 04:17:51;;;;;;;24.95;11.50;;;;;;;8.02;100.00;97355.94;4993602;28;20057;-61
2021/09/21 04:20:37;;;;;;;22.10;10.95;;;;;;;8.06;100.00;97358.81;4988958;28;20042;-64
2021/09/21 04:23:23;;;;;;;22.52;10.43;;;;;;;7.93;100.00;97357.16;4985265;28;20825;-64
2021/09/21 04:26:09;;;;;;;20.45;10.57;;;;;;;7.99;100.00;97362.06;4985235;28;20129;-61
2021/09/21 04:28:55;;;;;;;20.48;10.48;;;;;;;8.02;100.00;97363.34;4978400;28;20046;-63
2021/09/21 04:31:43;;;;;;;19.88;10.00;;;;;;;8.02;100.00;97363.34;4991132;28;20495;-63
2021/09/21 04:34:30;;;;;;;21.23;10.75;;;;;;;7.98;100.00;97365.16;4991887;28;20513;-64
2021/09/21 04:37:17;;;;;;;20.60;11.30;;;;;;;7.92;100.00;97366.47;4980027;28;20635;-63
2021/09/21 04:40:05;;;;;;;24.70;10.10;;;;;;;7.82;100.00;97384.03;4988879;28;20038;-61
2021/09/21 04:42:50;;;;;;;18.42;9.35;;;;;;;7.79;100.00;97380.03;4992341;28;20054;-63
2021/09/21 04:45:36;;;;;;;18.95;8.88;;;;;;;7.95;100.00;97382.97;4991470;28;20188;-63
2021/09/21 04:48:22;;;;;;;21.63;10.38;;;;;;;7.79;100.00;97379.25;4993097;28;21098;-62
2021/09/21 04:51:08;;;;;;;20.88;10.55;;;;;;;7.69;100.00;97374.16;5002199;28;20038;-63
2021/09/21 04:53:54;;;;;;;22.50;10.50;;;;;;;7.62;100.00;97371.97;4997974;28;20445;-64
2021/09/21 04:56:40;;;;;;;22.13;10.68;;;;;;;7.50;100.00;97375.41;4983727;28;20446;-63
2021/09/21 04:59:26;;;;;;;20.83;11.18;;;;;;;7.41;100.00;97370.00;4989870;28;20084;-64
2021/09/21 05:02:12;;;;;;;27.27;12.50;;;;;;;7.33;100.00;97378.22;4981015;28;20037;-63
2021/09/21 05:04:58;;;;;;;27.00;12.45;;;;;;;7.30;100.00;97378.91;4997327;28;20410;-64
2021/09/21 05:07:44;;;;;;;33.70;14.63;;;;;;;7.31;100.00;97383.22;4996689;28;20045;-63
2021/09/21 05:10:31;;;;;;;47.53;18.25;;;;;;;7.57;100.00;97377.63;4982075;28;20050;-63
2021/09/21 05:13:17;;;;;;;48.72;19.13;;;;;;;7.64;100.00;97377.91;4984265;28;20058;-63
2021/09/21 05:16:03;;;;;;;50.47;18.50;;;;;;;7.72;100.00;97387.94;4985456;28;20033;-62
2021/09/21 05:18:49;;;;;;;50.20;20.65;;;;;;;7.85;100.00;97384.16;4989743;28;20050;-62
2021/09/21 05:21:36;;;;;;;48.55;19.65;;;;;;;7.88;100.00;97392.81;4987326;28;20056;-62
2021/09/21 05:24:22;;;;;;;47.72;19.90;;;;;;;7.99;100.00;97385.81;4976477;28;20753;-63
2021/09/21 05:27:08;;;;;;;40.33;18.23;;;;;;;8.12;100.00;97389.41;4977495;28;20427;-63
2021/09/21 05:29:54;;;;;;;46.38;17.77;;;;;;;8.33;100.00;97395.66;4994558;28;20033;-63
2021/09/21 05:32:41;;;;;;;37.17;16.67;;;;;;;8.51;100.00;97399.06;5002159;28;20045;-62
2021/09/21 05:35:26;;;;;;;32.78;16.80;;;;;;;8.70;100.00;97408.69;4971769;28;20049;-62
2021/09/21 05:38:12;;;;;;;29.05;14.45;;;;;;;9.01;100.00;97407.41;4989713;28;20064;-60
2021/09/21 05:40:58;;;;;;;31.63;15.00;;;;;;;9.53;100.00;97418.47;4994212;28;20052;-63
2021/09/21 05:43:43;;;;;;;27.10;13.05;;;;;;;10.50;100.00;97432.38;4986039;28;20541;-62
2021/09/21 05:46:29;;;;;;;22.98;12.38;;;;;;;11.32;100.00;97421.19;4993073;28;20560;-63
2021/09/21 05:49:15;;;;;;;18.05;9.77;;;;;;;11.96;96.51;97433.72;4982196;28;20525;-63
2021/09/21 05:52:01;;;;;;;20.33;11.07;;;;;;;12.68;91.41;97429.75;4983420;28;20081;-63
2021/09/21 05:54:47;;;;;;;20.10;10.82;;;;;;;13.17;86.00;97444.78;4991350;28;20046;-65
2021/09/21 05:57:32;;;;;;;18.52;10.50;;;;;;;13.21;85.01;97448.41;4991998;28;20046;-63
2021/09/21 06:00:18;;;;;;;20.00;11.10;;;;;;;12.89;85.78;97447.81;4988744;28;20049;-62
2021/09/21 06:03:04;;;;;;;20.77;11.70;;;;;;;12.37;88.93;97441.66;4987912;28;20074;-61
2021/09/21 06:05:50;;;;;;;21.75;11.82;;;;;;;11.49;94.84;97445.53;4988620;28;20160;-61
2021/09/21 06:08:36;;;;;;;23.98;11.98;;;;;;;11.40;96.41;97453.16;4999860;28;20085;-63
2021/09/21 06:11:27;;;;;;;25.15;11.75;;;;;;;11.51;96.52;97469.88;4990257;28;21022;-64
2021/09/21 06:14:13;;;;;;;22.92;11.43;;;;;;;11.71;95.84;97465.25;4984638;28;20482;-64
2021/09/21 06:16:58;;;;;;;20.52;10.98;;;;;;;11.97;94.08;97479.22;4994234;28;20069;-64
2021/09/21 06:19:44;;;;;;;22.40;11.80;;;;;;;12.20;94.22;97482.09;4993139;28;20042;-60
2021/09/21 06:22:30;;;;;;;20.35;10.75;;;;;;;12.35;92.59;97485.16;4988923;28;20060;-62
2021/09/21 06:25:16;;;;;;;25.30;11.13;;;;;;;12.46;91.85;97482.66;4988170;28;20041;-63
2021/09/21 06:28:02;;;;;;;21.65;12.15;;;;;;;12.42;92.68;97486.16;4995531;28;20143;-65
2021/09/21 06:30:48;;;;;;;22.75;11.68;;;;;;;12.43;92.93;97492.44;4996607;28;20048;-64
2021/09/21 06:33:34;;;;;;;20.20;11.48;;;;;;;12.49;93.05;97492.94;4997003;28;20037;-64
2021/09/21 06:36:20;;;;;;;21.70;11.07;;;;;;;12.48;92.75;97497.63;4988000;28;20419;-64
2021/09/21 06:39:05;;;;;;;20.58;11.60;;;;;;;12.39;93.98;97497.84;4992406;28;20041;-64
2021/09/21 06:41:51;;;;;;;21.02;10.77;;;;;;;12.78;93.58;97499.81;4995207;28;20643;-64
2021/09/21 06:44:37;;;;;;;21.58;10.98;;;;;;;12.55;95.56;97494.22;4996337;28;20559;-63
2021/09/21 06:47:22;;;;;;;19.67;10.77;;;;;;;13.51;92.98;97505.56;4976808;28;20068;-62
2021/09/21 06:50:09;;;;;;;17.83;10.10;;;;;;;14.10;88.42;97511.66;4991694;28;20545;-64
2021/09/21 06:52:55;;;;;;;19.00;10.18;;;;;;;15.47;81.77;97517.75;4987754;28;20676;-64
2021/09/21 06:55:40;;;;;;;16.23;9.40;;;;;;;17.09;74.81;97507.84;4991098;28;20147;-64
2021/09/21 06:58:26;;;;;;;14.55;8.73;;;;;;;17.98;71.31;97514.75;4991926;28;20077;-65
2021/09/21 07:01:12;;;;;;;17.48;9.93;;;;;;;16.39;75.28;97516.16;4991823;28;20041;-67
2021/09/21 07:03:57;;;;;;;17.35;10.85;;;;;;;16.10;77.36;97523.47;4995753;28;20557;-65
2021/09/21 07:06:43;;;;;;;18.25;11.13;;;;;;;14.79;82.83;97532.72;4997674;28;20048;-66
2021/09/21 07:09:29;;;;;;;17.50;10.02;;;;;;;15.28;81.73;97537.25;4994152;28;20050;-65
2021/09/21 07:12:14;;;;;;;23.58;12.50;;;;;;;13.78;87.94;97531.19;4991127;28;20549;-64
2021/09/21 07:15:00;;;;;;;21.23;12.45;;;;;;;13.29;90.80;97532.66;4995949;28;20045;-65
2021/09/21 07:17:46;;;;;;;22.95;12.30;;;;;;;12.68;95.82;97536.94;4962678;28;20133;-64
2021/09/21 07:20:31;;;;;;;24.50;12.95;;;;;;;12.56;97.32;97537.06;4977620;28;20050;-65
2021/09/21 07:23:17;;;;;;;23.55;12.02;;;;;;;12.50;99.11;97546.75;4991005;28;20100;-65
2021/09/21 07:26:05;;;;;;;22.25;12.90;;;;;;;12.61;98.94;97543.06;4996251;28;20396;-67
2021/09/21 07:28:51;;;;;;;25.63;13.98;;;;;;;12.51;98.53;97535.38;5000941;28;20069;-66
2021/09/21 07:31:37;;;;;;;25.95;12.13;;;;;;;13.13;95.47;97524.50;4998697;28;20111;-66
2021/09/21 07:34:22;;;;;;;20.63;11.77;;;;;;;12.91;95.77;97522.47;4993220;28;20076;-65
2021/09/21 07:37:09;;;;;;;20.02;10.80;;;;;;;13.30;93.50;97525.97;4994474;28;20483;-67
2021/09/21 07:39:55;;;;;;;20.88;12.15;;;;;;;14.64;86.58;97531.72;4994111;28;20052;-66
2021/09/21 07:42:41;;;;;;;17.38;10.02;;;;;;;15.74;81.03;97530.63;4994916;28;20074;-66
2021/09/21 07:45:27;;;;;;;20.55;9.93;;;;;;;16.77;73.17;97530.59;4992243;28;20133;-65
2021/09/21 07:48:17;;;;;;;16.83;9.95;;;;;;;16.14;74.13;97526.25;4991509;28;20402;-64
2021/09/21 07:51:04;;;;;;;15.88;9.95;;;;;;;15.25;78.89;97533.28;4993788;28;20061;-65
2021/09/21 07:53:49;;;;;;;18.60;10.90;;;;;;;14.97;82.02;97539.25;4997321;28;20061;-64
2021/09/21 07:56:35;;;;;;;17.25;10.68;;;;;;;14.35;83.13;97542.34;4995482;28;20121;-64
2021/09/21 07:59:21;;;;;;;18.70;10.73;;;;;;;15.08;80.44;97553.97;4992368;28;20042;-64
2021/09/21 08:02:11;;;;;;;20.20;10.32;;;;;;;15.60;77.35;97565.19;4992146;28;20045;-64
2021/09/21 08:04:57;;;;;;;16.45;10.18;;;;;;;17.60;69.23;97557.84;4997203;28;20037;-63
2021/09/21 08:07:42;;;;;;;18.23;9.73;;;;;;;18.10;65.27;97566.25;4976863;28;20050;-64
2021/09/21 08:10:28;;;;;;;17.77;10.10;;;;;;;18.93;61.70;97566.94;4985965;28;20046;-63
2021/09/21 08:13:14;;;;;;;17.85;10.13;;;;;;;17.86;64.23;97576.91;4991383;28;20040;-65
2021/09/21 08:16:00;;;;;;;22.17;10.32;;;;;;;16.69;69.66;97580.72;4997042;28;20071;-64
2021/09/21 08:18:45;;;;;;;17.13;10.10;;;;;;;18.17;64.84;97582.88;4995605;28;20475;-63
2021/09/21 08:21:31;;;;;;;18.50;10.75;;;;;;;15.60;73.86;97592.03;4998567;28;20086;-63
2021/09/21 08:24:17;;;;;;;19.20;10.45;;;;;;;15.92;75.13;97597.09;4990952;28;20044;-63
2021/09/21 08:27:03;;;;;;;24.42;10.63;;;;;;;17.55;68.29;97592.22;4979900;28;20681;-65
2021/09/21 08:29:49;;;;;;;16.30;9.85;;;;;;;18.42;64.11;97588.41;4995867;28;20128;-64
2021/09/21 08:32:35;;;;;;;15.90;9.70;;;;;;;19.29;60.92;97586.25;4995130;28;20135;-65
2021/09/21 08:35:20;;;;;;;16.88;9.55;;;;;;;19.13;60.58;97578.38;4988737;28;20068;-63
2021/09/21 08:38:06;;;;;;;15.07;9.32;;;;;;;20.47;56.85;97589.50;4985809;28;20042;-64
2021/09/21 08:40:52;;;;;;;13.88;8.52;;;;;;;22.65;50.21;97588.75;4995429;28;20042;-63
2021/09/21 08:43:38;;;;;;;15.93;9.25;;;;;;;23.41;47.55;97592.94;4995144;28;20593;-64
2021/09/21 08:46:24;;;;;;;15.13;9.77;;;;;;;23.34;46.18;97593.84;4989710;28;20057;-63
2021/09/21 08:49:10;;;;;;;17.77;10.63;;;;;;;22.76;47.68;97599.72;4989355;28;20052;-66
2021/09/21 08:51:56;;;;;;;15.32;8.93;;;;;;;24.29;44.28;97598.97;4995302;28;20681;-64
2021/09/21 08:54:42;;;;;;;15.68;10.20;;;;;;;23.53;44.40;97599.84;4994130;28;20073;-60
2021/09/21 08:57:28;;;;;;;13.73;8.77;;;;;;;23.66;45.03;97598.78;4977444;28;20037;-63
2021/09/21 09:00:29;;;;;;;13.48;9.07;;;;;;;23.71;45.02;97597.47;4990093;28;20038;-64
2021/09/21 09:03:14;;;;;;;16.10;9.63;;;;;;;19.76;54.32;97600.75;4989498;28;20044;-62
2021/09/21 09:06:06;;;;;;;15.65;9.98;;;;;;;20.94;52.25;97606.59;4997095;28;20046;-66
2021/09/21 09:08:52;;;;;;;16.02;10.20;;;;;;;17.18;64.20;97610.69;4993761;28;20046;-63
2021/09/21 09:11:38;;;;;;;15.55;9.98;;;;;;;16.14;67.80;97606.41;4974210;28;20093;-64
2021/09/21 09:14:25;;;;;;;16.83;10.55;;;;;;;17.06;66.88;97607.47;4980488;28;20683;-63
2021/09/21 09:17:12;;;;;;;21.80;11.25;;;;;;;17.53;63.83;97603.69;4991107;28;20127;-64
2021/09/21 09:19:58;;;;;;;15.85;8.82;;;;;;;17.37;65.13;97608.78;4996062;28;20255;-63
2021/09/21 09:22:44;;;;;;;15.57;9.60;;;;;;;16.76;65.95;97614.78;4994141;28;20049;-62
2021/09/21 09:25:29;;;;;;;15.70;10.13;;;;;;;16.36;66.19;97623.94;4994810;28;20502;-63
2021/09/21 09:28:23;;;;;;;17.45;10.32;;;;;;;17.10;62.67;97614.59;4989092;28;20071;-63
2021/09/21 09:31:09;;;;;;;13.75;7.97;;;;;;;19.55;57.38;97615.50;4991159;28;20125;-64
2021/09/21 09:34:18;;;;;;;13.50;8.27;;;;;;;20.34;52.13;97620.59;4993221;28;20503;-62
2021/09/21 09:37:05;;;;;;;16.38;8.70;;;;;;;22.27;45.76;97618.88;4992756;28;20038;-65
2021/09/21 09:39:59;;;;;;;15.00;8.77;;;;;;;19.68;53.85;97613.88;4992691;28;20050;-65
2021/09/21 09:42:46;;;;;;;16.98;9.38;;;;;;;18.94;57.06;97618.47;4991713;28;20084;-64
2021/09/21 09:45:37;;;;;;;13.43;8.55;;;;;;;20.04;53.42;97610.91;4993897;28;20042;-64
2021/09/21 09:48:24;;;;;;;17.05;10.10;;;;;;;18.57;59.96;97616.16;4989755;28;20923;-63
2021/09/21 09:51:10;;;;;;;16.88;9.77;;;;;;;19.19;57.94;97610.09;4988815;28;20723;-65
2021/09/21 09:53:55;;;;;;;15.73;9.20;;;;;;;18.42;58.76;97607.03;4995107;28;20120;-61
2021/09/21 09:56:43;;;;;;;15.00;9.63;;;;;;;18.42;57.15;97604.25;4993582;28;20050;-62
2021/09/21 09:59:29;;;;;;;15.60;9.82;;;;;;;17.90;58.82;97605.41;4977458;28;20044;-62
2021/09/21 10:02:15;;;;;;;12.48;8.55;;;;;;;18.84;56.45;97603.44;4984120;28;20709;-62
2021/09/21 10:05:02;;;;;;;15.75;9.68;;;;;;;19.22;56.84;97614.06;4991723;28;20129;-64
2021/09/21 10:07:48;;;;;;;11.05;7.57;;;;;;;19.99;53.61;97627.22;4963437;28;20082;-62
2021/09/21 10:10:35;;;;;;;12.90;7.68;;;;;;;21.28;49.32;97622.53;4974081;28;20060;-63
2021/09/21 10:13:21;;;;;;;11.02;7.35;;;;;;;22.27;45.41;97608.50;4973055;28;20034;-63
2021/09/21 10:16:07;;;;;;;10.30;6.90;;;;;;;20.77;47.71;97625.06;4961238;28;20088;-64
2021/09/21 10:18:54;;;;;;;10.48;7.05;;;;;;;19.08;51.50;97623.22;4951805;28;20038;-62
2021/09/21 10:21:40;;;;;;;14.60;8.30;;;;;;;18.76;52.96;97623.25;4993557;28;20038;-63
2021/09/21 10:24:42;;;;;;;16.75;8.05;;;;;;;19.39;55.09;97627.09;4990217;28;20058;-62
2021/09/21 10:27:28;;;;;;;15.57;9.77;;;;;;;20.10;54.65;97627.94;4991548;28;20069;-63
2021/09/21 10:30:14;;;;;;;14.02;8.63;;;;;;;19.13;57.66;97625.59;4969033;28;20049;-63
2021/09/21 10:33:00;;;;;;;12.23;7.97;;;;;;;19.74;53.28;97625.38;4979052;28;20402;-63
2021/09/21 10:35:49;;;;;;;12.65;7.53;;;;;;;19.56;49.58;97619.88;4993580;28;20761;-63
2021/09/21 10:38:35;;;;;;;13.20;6.90;;;;;;;20.93;47.91;97622.50;4994755;28;20120;-64
2021/09/21 10:41:21;;;;;;;10.80;6.45;;;;;;;21.43;46.48;97620.34;4990105;28;20042;-64
2021/09/21 10:44:07;;;;;;;12.95;6.97;;;;;;;22.03;46.55;97606.84;4986217;28;20045;-64
2021/09/21 10:46:58;;;;;;;11.63;7.10;;;;;;;21.67;44.55;97610.94;4994523;28;20050;-62
2021/09/21 10:49:43;;;;;;;10.13;6.47;;;;;;;22.18;45.00;97613.78;4992823;28;20191;-63
2021/09/21 10:52:29;;;;;;;13.90;7.50;;;;;;;22.23;43.89;97604.16;5001426;28;20522;-63
2021/09/21 10:55:20;;;;;;;11.80;7.15;;;;;;;21.82;44.37;97607.94;4989754;28;20104;-64
2021/09/21 10:58:18;;;;;;;9.32;6.13;;;;;;;21.54;45.07;97607.91;4991271;28;20041;-64
2021/09/21 11:01:05;;;;;;;10.45;6.30;;;;;;;21.42;45.21;97610.44;4991521;28;20195;-63
2021/09/21 11:03:51;;;;;;;10.57;6.50;;;;;;;21.88;44.99;97606.28;4996225;28;20052;-63
2021/09/21 11:06:46;;;;;;;10.07;6.40;;;;;;;22.14;44.15;97601.91;4993374;28;20053;-65
2021/09/21 11:09:32;;;;;;;9.90;6.25;;;;;;;22.17;44.50;97609.44;4991652;28;20140;-64
2021/09/21 11:12:19;;;;;;;11.35;6.53;;;;;;;21.67;44.87;97601.78;4987429;28;20041;-62
2021/09/21 11:15:08;;;;;;;12.68;7.60;;;;;;;19.74;48.56;97600.38;4992203;28;20053;-64
2021/09/21 11:18:14;;;;;;;10.67;7.17;;;;;;;18.78;52.38;97585.59;4996041;28;20068;-63
2021/09/21 11:21:04;;;;;;;8.88;6.03;;;;;;;20.81;49.90;97597.97;4998061;28;20061;-64
2021/09/21 11:23:49;;;;;;;9.45;5.40;;;;;;;22.13;47.43;97595.53;4995078;28;20034;-63
2021/09/21 11:26:37;;;;;;;10.88;6.90;;;;;;;21.41;47.51;97597.69;5001517;28;20063;-65
2021/09/21 11:29:23;;;;;;;9.93;6.10;;;;;;;22.44;47.25;97601.06;4999298;28;20573;-64
2021/09/21 11:32:17;;;;;;;12.07;6.22;;;;;;;22.06;45.75;97604.00;4995785;28;20049;-62
2021/09/21 11:35:08;;;;;;;10.68;6.72;;;;;;;21.54;45.95;97601.56;4996278;28;20065;-66
2021/09/21 11:37:54;;;;;;;9.25;6.22;;;;;;;21.71;44.75;97597.72;4998054;28;20061;-63
2021/09/21 11:40:43;;;;;;;8.23;5.22;;;;;;;21.14;46.65;97603.97;4998301;28;20042;-64
2021/09/21 11:43:29;;;;;;;7.10;4.43;;;;;;;21.48;44.32;97592.06;4994056;28;20053;-63
2021/09/21 11:46:15;;;;;;;7.70;4.80;;;;;;;21.35;42.99;97602.94;4976687;28;20821;-63
2021/09/21 11:49:03;;;;;;;7.97;4.82;;;;;;;21.52;43.51;97588.03;4997060;28;20038;-64
2021/09/21 11:51:49;;;;;;;6.85;4.40;;;;;;;21.81;42.40;97595.22;4996928;28;20143;-63
2021/09/21 11:54:39;;;;;;;20.65;6.85;;;;;;;21.71;46.48;97592.16;4995981;28;20041;-64
2021/09/21 11:57:25;;;;;;;9.88;6.57;;;;;;;21.25;48.02;97589.91;4991349;28;20058;-64
2021/09/21 12:00:28;;;;;;;10.70;6.32;;;;;;;20.96;48.56;97587.50;4993195;28;20033;-63
2021/09/21 12:03:17;;;;;;;11.02;6.90;;;;;;;21.06;47.83;97586.56;4992738;28;20056;-63
2021/09/21 12:06:04;;;;;;;10.57;5.87;;;;;;;20.01;49.83;97589.47;4999832;28;20065;-63
2021/09/21 12:08:51;;;;;;;11.45;6.05;;;;;;;20.49;50.89;97579.56;4977888;28;20053;-64
2021/09/21 12:11:42;;;;;;;8.68;5.88;;;;;;;20.64;51.14;97582.25;4995019;28;20176;-65
2021/09/21 12:14:28;;;;;;;10.98;5.85;;;;;;;20.96;49.27;97585.50;4991907;28;20116;-62
2021/09/21 12:17:13;;;;;;;8.02;5.05;;;;;;;21.11;47.92;97590.91;4981413;28;20072;-64
2021/09/21 12:20:00;;;;;;;8.38;5.78;;;;;;;21.28;49.05;97587.09;4997808;28;20438;-64
2021/09/21 12:22:52;;;;;;;13.23;6.22;;;;;;;19.70;50.64;97582.09;4993688;28;20454;-63
2021/09/21 12:25:41;;;;;;;10.77;6.22;;;;;;;20.33;48.46;97573.72;4990627;28;20180;-64
2021/09/21 12:28:32;;;;;;;8.15;5.20;;;;;;;21.39;46.89;97567.47;4991193;28;20144;-64
2021/09/21 12:31:28;;;;;;;7.47;5.30;;;;;;;19.91;49.58;97570.84;4990208;28;20156;-64
2021/09/21 12:34:14;;;;;;;7.05;4.50;;;;;;;20.72;47.93;97567.03;4991256;28;20037;-64
2021/09/21 12:37:00;;;;;;;7.13;4.63;;;;;;;19.09;51.75;97572.84;4998277;28;20509;-65
2021/09/21 12:39:46;;;;;;;8.23;5.05;;;;;;;19.78;50.75;97572.53;4995841;28;20135;-65
2021/09/21 12:42:34;;;;;;;7.93;4.57;;;;;;;20.26;45.71;97569.03;4994199;28;20049;-62
2021/09/21 12:45:20;;;;;;;6.30;4.15;;;;;;;19.86;47.62;97568.50;4989835;28;20034;-62
2021/09/21 12:48:07;;;;;;;5.90;4.15;;;;;;;20.18;45.35;97573.06;4991607;28;20053;-64
2021/09/21 12:50:56;;;;;;;9.45;4.72;;;;;;;19.75;46.93;97576.13;4997877;28;20698;-63
2021/09/21 12:53:42;;;;;;;8.85;5.05;;;;;;;18.37;50.08;97568.63;4995283;28;20050;-62
2021/09/21 12:56:30;;;;;;;7.93;5.30;;;;;;;18.82;49.40;97560.66;4992481;28;20084;-62
2021/09/21 12:59:19;;;;;;;6.93;4.88;;;;;;;18.59;50.87;97567.38;4992074;28;20696;-64
2021/09/21 13:02:05;;;;;;;6.13;4.07;;;;;;;19.50;47.23;97560.38;4991670;28;20049;-64